sensor_id;sensor_type;location;lat;lon;timestamp;P1;durP1;ratioP1;P2;durP2;ratioP2
3875;SDS011;1953;51.222;6.624;2022-08-19T00:05:22;19.37;;;16.37;;
3875;SDS011;1953;51.222;6.624;2022-08-19T00:10:05;20.03;;;16.90;;
3875;SDS011;1953;51.222;6.624;2022-08-19T00:14:49;19.10;;;16.53;;
3875;SDS011;1953;51.222;6.624;2022-08-19T00:19:35;18.93;;;16.97;;
3875;SDS011;1953;51.222;6.624;2022-08-19T00:24:20;19.33;;;17.37;;
3875;SDS011;1953;51.222;6.624;2022-08-19T00:29:02;19.90;;;17.80;;
3875;SDS011;1953;51.222;6.624;2022-08-19T00:33:46;19.97;;;17.67;;
3875;SDS011;1953;51.222;6.624;2022-08-19T00:38:31;25.40;;;19.80;;
3875;SDS011;1953;51.222;6.624;2022-08-19T00:43:18;21.80;;;19.30;;
3875;SDS011;1953;51.222;6.624;2022-08-19T00:48:01;22.07;;;17.87;;
3875;SDS011;1953;51.222;6.624;2022-08-19T00:52:46;22.30;;;18.43;;
3875;SDS011;1953;51.222;6.624;2022-08-19T00:57:32;24.60;;;20.03;;
3875;SDS011;1953;51.222;6.624;2022-08-19T01:02:19;25.73;;;21.33;;
3875;SDS011;1953;51.222;6.624;2022-08-19T01:07:02;27.67;;;22.60;;
3875;SDS011;1953;51.222;6.624;2022-08-19T01:11:45;29.13;;;21.70;;
3875;SDS011;1953;51.222;6.624;2022-08-19T01:16:27;29.43;;;22.20;;
3875;SDS011;1953;51.222;6.624;2022-08-19T01:21:15;24.73;;;21.13;;
3875;SDS011;1953;51.222;6.624;2022-08-19T01:26:05;22.63;;;19.50;;
3875;SDS011;1953;51.222;6.624;2022-08-19T01:30:47;25.10;;;21.90;;
3875;SDS011;1953;51.222;6.624;2022-08-19T01:35:30;24.17;;;21.57;;
3875;SDS011;1953;51.222;6.624;2022-08-19T01:40:13;24.60;;;21.53;;
3875;SDS011;1953;51.222;6.624;2022-08-19T01:44:57;27.60;;;23.03;;
3875;SDS011;1953;51.222;6.624;2022-08-19T01:49:41;26.50;;;22.20;;
3875;SDS011;1953;51.222;6.624;2022-08-19T01:54:23;30.43;;;23.50;;
3875;SDS011;1953;51.222;6.624;2022-08-19T01:59:08;29.30;;;23.53;;
3875;SDS011;1953;51.222;6.624;2022-08-19T02:03:54;28.33;;;24.23;;
3875;SDS011;1953;51.222;6.624;2022-08-19T02:08:37;29.10;;;23.90;;
3875;SDS011;1953;51.222;6.624;2022-08-19T02:13:20;33.97;;;25.77;;
3875;SDS011;1953;51.222;6.624;2022-08-19T02:18:03;30.00;;;22.70;;
3875;SDS011;1953;51.222;6.624;2022-08-19T02:22:47;29.33;;;24.43;;
3875;SDS011;1953;51.222;6.624;2022-08-19T02:27:29;30.63;;;25.00;;
3875;SDS011;1953;51.222;6.624;2022-08-19T02:32:14;38.33;;;25.63;;
3875;SDS011;1953;51.222;6.624;2022-08-19T02:36:57;32.70;;;24.87;;
3875;SDS011;1953;51.222;6.624;2022-08-19T02:41:41;31.73;;;25.33;;
3875;SDS011;1953;51.222;6.624;2022-08-19T02:46:24;29.90;;;25.40;;
3875;SDS011;1953;51.222;6.624;2022-08-19T02:51:08;31.37;;;26.00;;
3875;SDS011;1953;51.222;6.624;2022-08-19T02:55:56;33.53;;;25.27;;
3875;SDS011;1953;51.222;6.624;2022-08-19T03:00:44;31.43;;;26.03;;
3875;SDS011;1953;51.222;6.624;2022-08-19T03:05:29;33.00;;;24.20;;
3875;SDS011;1953;51.222;6.624;2022-08-19T03:10:12;31.57;;;26.30;;
3875;SDS011;1953;51.222;6.624;2022-08-19T03:14:54;44.93;;;34.17;;
3875;SDS011;1953;51.222;6.624;2022-08-19T03:19:38;43.10;;;34.60;;
3875;SDS011;1953;51.222;6.624;2022-08-19T03:24:21;53.37;;;35.83;;
3875;SDS011;1953;51.222;6.624;2022-08-19T03:29:04;49.70;;;37.70;;
3875;SDS011;1953;51.222;6.624;2022-08-19T03:33:47;54.13;;;40.00;;
3875;SDS011;1953;51.222;6.624;2022-08-19T03:38:31;60.77;;;43.77;;
3875;SDS011;1953;51.222;6.624;2022-08-19T03:43:14;65.00;;;46.70;;
3875;SDS011;1953;51.222;6.624;2022-08-19T03:47:58;65.07;;;48.10;;
3875;SDS011;1953;51.222;6.624;2022-08-19T03:52:41;71.87;;;49.40;;
3875;SDS011;1953;51.222;6.624;2022-08-19T03:57:25;72.33;;;48.63;;
3875;SDS011;1953;51.222;6.624;2022-08-19T04:02:08;69.97;;;50.10;;
3875;SDS011;1953;51.222;6.624;2022-08-19T04:06:52;70.23;;;48.90;;
3875;SDS011;1953;51.222;6.624;2022-08-19T04:11:36;73.43;;;49.40;;
3875;SDS011;1953;51.222;6.624;2022-08-19T04:16:24;78.43;;;52.50;;
3875;SDS011;1953;51.222;6.624;2022-08-19T04:21:14;79.43;;;50.57;;
3875;SDS011;1953;51.222;6.624;2022-08-19T04:25:58;79.73;;;51.57;;
3875;SDS011;1953;51.222;6.624;2022-08-19T04:30:41;81.60;;;53.20;;
3875;SDS011;1953;51.222;6.624;2022-08-19T04:35:26;81.20;;;51.93;;
3875;SDS011;1953;51.222;6.624;2022-08-19T04:40:09;79.20;;;50.97;;
3875;SDS011;1953;51.222;6.624;2022-08-19T04:45:11;86.60;;;52.30;;
3875;SDS011;1953;51.222;6.624;2022-08-19T04:49:55;77.60;;;51.50;;
3875;SDS011;1953;51.222;6.624;2022-08-19T04:54:39;81.67;;;49.70;;
3875;SDS011;1953;51.222;6.624;2022-08-19T04:59:22;84.30;;;53.70;;
3875;SDS011;1953;51.222;6.624;2022-08-19T05:04:05;79.77;;;52.37;;
3875;SDS011;1953;51.222;6.624;2022-08-19T05:08:49;81.60;;;52.87;;
3875;SDS011;1953;51.222;6.624;2022-08-19T05:13:33;88.53;;;53.00;;
3875;SDS011;1953;51.222;6.624;2022-08-19T05:18:16;85.40;;;51.73;;
3875;SDS011;1953;51.222;6.624;2022-08-19T05:23:15;90.63;;;52.10;;
3875;SDS011;1953;51.222;6.624;2022-08-19T05:27:58;83.67;;;50.70;;
3875;SDS011;1953;51.222;6.624;2022-08-19T05:32:42;94.30;;;56.73;;
3875;SDS011;1953;51.222;6.624;2022-08-19T05:37:25;85.00;;;50.97;;
3875;SDS011;1953;51.222;6.624;2022-08-19T05:42:09;88.27;;;53.87;;
3875;SDS011;1953;51.222;6.624;2022-08-19T05:46:53;84.60;;;51.00;;
3875;SDS011;1953;51.222;6.624;2022-08-19T05:51:37;80.10;;;51.57;;
3875;SDS011;1953;51.222;6.624;2022-08-19T05:56:19;81.00;;;51.27;;
3875;SDS011;1953;51.222;6.624;2022-08-19T06:01:02;74.80;;;50.10;;
3875;SDS011;1953;51.222;6.624;2022-08-19T06:05:46;69.27;;;46.87;;
3875;SDS011;1953;51.222;6.624;2022-08-19T06:10:30;69.33;;;46.47;;
3875;SDS011;1953;51.222;6.624;2022-08-19T06:15:13;71.83;;;46.97;;
3875;SDS011;1953;51.222;6.624;2022-08-19T06:19:56;70.13;;;49.33;;
3875;SDS011;1953;51.222;6.624;2022-08-19T06:24:39;68.30;;;46.50;;
3875;SDS011;1953;51.222;6.624;2022-08-19T06:29:24;68.00;;;45.00;;
3875;SDS011;1953;51.222;6.624;2022-08-19T06:34:08;66.50;;;43.77;;
3875;SDS011;1953;51.222;6.624;2022-08-19T06:38:50;64.30;;;43.57;;
3875;SDS011;1953;51.222;6.624;2022-08-19T06:43:33;64.47;;;40.80;;
3875;SDS011;1953;51.222;6.624;2022-08-19T06:48:18;58.40;;;39.83;;
3875;SDS011;1953;51.222;6.624;2022-08-19T06:53:00;58.33;;;40.50;;
3875;SDS011;1953;51.222;6.624;2022-08-19T06:57:43;55.00;;;38.17;;
3875;SDS011;1953;51.222;6.624;2022-08-19T07:02:26;57.23;;;38.00;;
3875;SDS011;1953;51.222;6.624;2022-08-19T07:07:11;47.50;;;32.97;;
3875;SDS011;1953;51.222;6.624;2022-08-19T07:11:55;48.43;;;32.97;;
3875;SDS011;1953;51.222;6.624;2022-08-19T07:16:38;55.27;;;36.53;;
3875;SDS011;1953;51.222;6.624;2022-08-19T07:21:21;64.17;;;41.80;;
3875;SDS011;1953;51.222;6.624;2022-08-19T07:26:11;64.97;;;43.53;;
3875;SDS011;1953;51.222;6.624;2022-08-19T07:30:55;65.70;;;41.87;;
3875;SDS011;1953;51.222;6.624;2022-08-19T07:35:37;65.23;;;43.47;;
3875;SDS011;1953;51.222;6.624;2022-08-19T07:40:20;64.87;;;44.00;;
3875;SDS011;1953;51.222;6.624;2022-08-19T07:45:04;69.27;;;46.60;;
3875;SDS011;1953;51.222;6.624;2022-08-19T07:49:48;80.03;;;45.90;;
3875;SDS011;1953;51.222;6.624;2022-08-19T07:54:32;84.23;;;49.80;;
3875;SDS011;1953;51.222;6.624;2022-08-19T07:59:17;83.83;;;50.20;;
3875;SDS011;1953;51.222;6.624;2022-08-19T08:04:01;89.87;;;50.40;;
3875;SDS011;1953;51.222;6.624;2022-08-19T08:09:02;70.17;;;45.77;;
3875;SDS011;1953;51.222;6.624;2022-08-19T08:14:01;68.70;;;45.63;;
3875;SDS011;1953;51.222;6.624;2022-08-19T08:18:45;74.97;;;47.10;;
3875;SDS011;1953;51.222;6.624;2022-08-19T08:23:29;81.33;;;46.90;;
3875;SDS011;1953;51.222;6.624;2022-08-19T08:28:12;63.67;;;42.40;;
3875;SDS011;1953;51.222;6.624;2022-08-19T08:32:54;64.40;;;43.07;;
3875;SDS011;1953;51.222;6.624;2022-08-19T08:37:37;61.83;;;40.57;;
3875;SDS011;1953;51.222;6.624;2022-08-19T08:42:23;58.93;;;41.13;;
3875;SDS011;1953;51.222;6.624;2022-08-19T08:47:11;54.60;;;37.50;;
3875;SDS011;1953;51.222;6.624;2022-08-19T08:51:59;60.03;;;38.70;;
3875;SDS011;1953;51.222;6.624;2022-08-19T08:56:45;51.63;;;36.10;;
3875;SDS011;1953;51.222;6.624;2022-08-19T09:01:32;46.40;;;33.33;;
3875;SDS011;1953;51.222;6.624;2022-08-19T09:06:18;41.40;;;30.33;;
3875;SDS011;1953;51.222;6.624;2022-08-19T09:11:08;43.87;;;33.00;;
3875;SDS011;1953;51.222;6.624;2022-08-19T09:15:54;48.13;;;32.63;;
3875;SDS011;1953;51.222;6.624;2022-08-19T09:20:43;42.00;;;28.30;;
3875;SDS011;1953;51.222;6.624;2022-08-19T09:25:27;38.77;;;27.60;;
3875;SDS011;1953;51.222;6.624;2022-08-19T09:30:13;36.73;;;25.67;;
3875;SDS011;1953;51.222;6.624;2022-08-19T09:34:57;33.27;;;24.67;;
3875;SDS011;1953;51.222;6.624;2022-08-19T09:39:42;37.30;;;27.33;;
3875;SDS011;1953;51.222;6.624;2022-08-19T09:44:24;28.30;;;22.50;;
3875;SDS011;1953;51.222;6.624;2022-08-19T09:49:07;34.20;;;24.70;;
3875;SDS011;1953;51.222;6.624;2022-08-19T09:53:50;30.63;;;23.63;;
3875;SDS011;1953;51.222;6.624;2022-08-19T09:58:36;35.93;;;23.03;;
3875;SDS011;1953;51.222;6.624;2022-08-19T10:03:19;25.90;;;20.03;;
3875;SDS011;1953;51.222;6.624;2022-08-19T10:08:02;22.67;;;18.93;;
3875;SDS011;1953;51.222;6.624;2022-08-19T10:12:45;21.70;;;18.10;;
3875;SDS011;1953;51.222;6.624;2022-08-19T10:17:29;16.67;;;14.60;;
3875;SDS011;1953;51.222;6.624;2022-08-19T10:22:14;22.57;;;17.10;;
3875;SDS011;1953;51.222;6.624;2022-08-19T10:26:56;18.37;;;15.23;;
3875;SDS011;1953;51.222;6.624;2022-08-19T10:31:39;20.50;;;15.90;;
3875;SDS011;1953;51.222;6.624;2022-08-19T10:36:25;24.50;;;15.77;;
3875;SDS011;1953;51.222;6.624;2022-08-19T10:41:09;20.50;;;17.77;;
3875;SDS011;1953;51.222;6.624;2022-08-19T10:45:53;20.13;;;17.57;;
3875;SDS011;1953;51.222;6.624;2022-08-19T10:50:39;21.33;;;16.47;;
3875;SDS011;1953;51.222;6.624;2022-08-19T10:55:41;19.43;;;16.43;;
3875;SDS011;1953;51.222;6.624;2022-08-19T11:00:41;22.13;;;16.17;;
3875;SDS011;1953;51.222;6.624;2022-08-19T11:05:24;23.47;;;16.07;;
3875;SDS011;1953;51.222;6.624;2022-08-19T11:10:08;21.63;;;14.30;;
3875;SDS011;1953;51.222;6.624;2022-08-19T11:14:54;16.10;;;13.67;;
3875;SDS011;1953;51.222;6.624;2022-08-19T11:19:37;15.83;;;14.13;;
3875;SDS011;1953;51.222;6.624;2022-08-19T11:24:20;15.17;;;13.10;;
3875;SDS011;1953;51.222;6.624;2022-08-19T11:29:04;13.30;;;11.67;;
3875;SDS011;1953;51.222;6.624;2022-08-19T11:33:53;15.23;;;13.40;;
3875;SDS011;1953;51.222;6.624;2022-08-19T11:38:37;17.40;;;14.27;;
3875;SDS011;1953;51.222;6.624;2022-08-19T11:43:20;15.90;;;13.23;;
3875;SDS011;1953;51.222;6.624;2022-08-19T11:48:02;18.63;;;13.20;;
3875;SDS011;1953;51.222;6.624;2022-08-19T11:52:46;14.30;;;12.70;;
3875;SDS011;1953;51.222;6.624;2022-08-19T11:57:30;14.80;;;12.70;;
3875;SDS011;1953;51.222;6.624;2022-08-19T12:06:24;12.00;;;10.80;;
3875;SDS011;1953;51.222;6.624;2022-08-19T12:11:09;12.70;;;11.40;;
3875;SDS011;1953;51.222;6.624;2022-08-19T12:15:53;13.80;;;11.53;;
3875;SDS011;1953;51.222;6.624;2022-08-19T12:20:36;10.50;;;9.40;;
3875;SDS011;1953;51.222;6.624;2022-08-19T12:25:21;9.60;;;8.70;;
3875;SDS011;1953;51.222;6.624;2022-08-19T12:30:04;14.67;;;10.90;;
3875;SDS011;1953;51.222;6.624;2022-08-19T12:34:48;11.90;;;10.80;;
3875;SDS011;1953;51.222;6.624;2022-08-19T12:39:33;9.63;;;8.73;;
3875;SDS011;1953;51.222;6.624;2022-08-19T12:44:18;10.40;;;7.57;;
3875;SDS011;1953;51.222;6.624;2022-08-19T12:49:00;7.60;;;6.95;;
3875;SDS011;1953;51.222;6.624;2022-08-19T12:53:43;8.38;;;6.50;;
3875;SDS011;1953;51.222;6.624;2022-08-19T12:58:26;8.13;;;6.32;;
3875;SDS011;1953;51.222;6.624;2022-08-19T13:03:11;9.82;;;6.65;;
3875;SDS011;1953;51.222;6.624;2022-08-19T13:07:55;7.30;;;6.60;;
3875;SDS011;1953;51.222;6.624;2022-08-19T13:12:40;6.68;;;6.15;;
3875;SDS011;1953;51.222;6.624;2022-08-19T13:17:23;12.60;;;6.80;;
3875;SDS011;1953;51.222;6.624;2022-08-19T13:22:07;8.80;;;7.10;;
3875;SDS011;1953;51.222;6.624;2022-08-19T13:26:49;6.53;;;6.03;;
3875;SDS011;1953;51.222;6.624;2022-08-19T13:31:33;5.80;;;5.30;;
3875;SDS011;1953;51.222;6.624;2022-08-19T13:36:35;5.20;;;4.80;;
3875;SDS011;1953;51.222;6.624;2022-08-19T13:41:19;7.05;;;5.18;;
3875;SDS011;1953;51.222;6.624;2022-08-19T13:46:07;4.60;;;4.30;;
3875;SDS011;1953;51.222;6.624;2022-08-19T13:50:53;4.85;;;4.45;;
3875;SDS011;1953;51.222;6.624;2022-08-19T13:55:36;5.35;;;4.40;;
3875;SDS011;1953;51.222;6.624;2022-08-19T14:00:22;4.80;;;4.40;;
3875;SDS011;1953;51.222;6.624;2022-08-19T14:05:07;4.82;;;4.38;;
3875;SDS011;1953;51.222;6.624;2022-08-19T14:09:51;6.43;;;4.05;;
3875;SDS011;1953;51.222;6.624;2022-08-19T14:14:35;4.70;;;4.13;;
3875;SDS011;1953;51.222;6.624;2022-08-19T14:19:20;5.15;;;4.40;;
3875;SDS011;1953;51.222;6.624;2022-08-19T14:24:02;4.40;;;4.10;;
3875;SDS011;1953;51.222;6.624;2022-08-19T14:28:45;5.75;;;4.45;;
3875;SDS011;1953;51.222;6.624;2022-08-19T14:33:28;4.93;;;4.63;;
3875;SDS011;1953;51.222;6.624;2022-08-19T14:38:16;5.10;;;4.60;;
3875;SDS011;1953;51.222;6.624;2022-08-19T14:43:01;5.32;;;3.90;;
3875;SDS011;1953;51.222;6.624;2022-08-19T14:47:45;5.28;;;3.92;;
3875;SDS011;1953;51.222;6.624;2022-08-19T14:52:27;5.18;;;4.30;;
3875;SDS011;1953;51.222;6.624;2022-08-19T14:57:12;4.85;;;4.47;;
3875;SDS011;1953;51.222;6.624;2022-08-19T15:01:55;6.57;;;5.10;;
3875;SDS011;1953;51.222;6.624;2022-08-19T15:06:38;7.07;;;5.40;;
3875;SDS011;1953;51.222;6.624;2022-08-19T15:11:22;5.68;;;5.18;;
3875;SDS011;1953;51.222;6.624;2022-08-19T15:16:08;5.72;;;5.32;;
3875;SDS011;1953;51.222;6.624;2022-08-19T15:20:51;5.20;;;4.90;;
3875;SDS011;1953;51.222;6.624;2022-08-19T15:25:33;4.78;;;4.47;;
3875;SDS011;1953;51.222;6.624;2022-08-19T15:30:18;3.60;;;3.40;;
3875;SDS011;1953;51.222;6.624;2022-08-19T15:35:05;4.45;;;3.53;;
3875;SDS011;1953;51.222;6.624;2022-08-19T15:39:48;3.58;;;3.38;;
3875;SDS011;1953;51.222;6.624;2022-08-19T15:44:31;3.80;;;3.60;;
3875;SDS011;1953;51.222;6.624;2022-08-19T15:49:14;3.30;;;3.00;;
3875;SDS011;1953;51.222;6.624;2022-08-19T15:53:59;7.18;;;3.50;;
3875;SDS011;1953;51.222;6.624;2022-08-19T15:58:46;3.97;;;3.70;;
3875;SDS011;1953;51.222;6.624;2022-08-19T16:03:52;4.80;;;4.40;;
3875;SDS011;1953;51.222;6.624;2022-08-19T16:08:52;5.30;;;4.90;;
3875;SDS011;1953;51.222;6.624;2022-08-19T16:13:37;8.98;;;4.95;;
3875;SDS011;1953;51.222;6.624;2022-08-19T16:18:20;10.45;;;5.00;;
3875;SDS011;1953;51.222;6.624;2022-08-19T16:23:02;5.13;;;4.63;;
3875;SDS011;1953;51.222;6.624;2022-08-19T16:27:45;5.57;;;5.07;;
3875;SDS011;1953;51.222;6.624;2022-08-19T16:32:29;4.47;;;4.17;;
3875;SDS011;1953;51.222;6.624;2022-08-19T16:37:13;4.53;;;4.00;;
3875;SDS011;1953;51.222;6.624;2022-08-19T16:41:55;5.03;;;4.63;;
3875;SDS011;1953;51.222;6.624;2022-08-19T16:46:38;6.53;;;4.33;;
3875;SDS011;1953;51.222;6.624;2022-08-19T16:51:23;5.20;;;4.63;;
3875;SDS011;1953;51.222;6.624;2022-08-19T16:56:06;5.73;;;5.20;;
3875;SDS011;1953;51.222;6.624;2022-08-19T17:00:49;5.27;;;4.77;;
3875;SDS011;1953;51.222;6.624;2022-08-19T17:05:32;5.17;;;4.67;;
3875;SDS011;1953;51.222;6.624;2022-08-19T17:10:16;8.50;;;4.37;;
3875;SDS011;1953;51.222;6.624;2022-08-19T17:14:58;5.03;;;4.20;;
3875;SDS011;1953;51.222;6.624;2022-08-19T17:19:42;7.07;;;4.37;;
3875;SDS011;1953;51.222;6.624;2022-08-19T17:24:25;4.90;;;4.20;;
3875;SDS011;1953;51.222;6.624;2022-08-19T17:29:08;5.50;;;3.70;;
3875;SDS011;1953;51.222;6.624;2022-08-19T17:33:51;3.83;;;3.53;;
3875;SDS011;1953;51.222;6.624;2022-08-19T17:38:34;3.77;;;3.53;;
3875;SDS011;1953;51.222;6.624;2022-08-19T17:43:17;3.50;;;3.10;;
3875;SDS011;1953;51.222;6.624;2022-08-19T17:48:01;3.93;;;3.63;;
3875;SDS011;1953;51.222;6.624;2022-08-19T17:52:44;4.70;;;4.30;;
3875;SDS011;1953;51.222;6.624;2022-08-19T17:57:27;4.97;;;4.50;;
3875;SDS011;1953;51.222;6.624;2022-08-19T18:02:09;4.70;;;4.30;;
3875;SDS011;1953;51.222;6.624;2022-08-19T18:06:54;4.30;;;3.90;;
3875;SDS011;1953;51.222;6.624;2022-08-19T18:11:36;4.67;;;4.27;;
3875;SDS011;1953;51.222;6.624;2022-08-19T18:16:19;3.93;;;3.43;;
3875;SDS011;1953;51.222;6.624;2022-08-19T18:21:02;4.67;;;4.37;;
3875;SDS011;1953;51.222;6.624;2022-08-19T18:25:46;5.40;;;4.47;;
3875;SDS011;1953;51.222;6.624;2022-08-19T18:30:29;4.20;;;3.80;;
3875;SDS011;1953;51.222;6.624;2022-08-19T18:35:14;5.13;;;3.57;;
3875;SDS011;1953;51.222;6.624;2022-08-19T18:39:59;3.40;;;2.90;;
3875;SDS011;1953;51.222;6.624;2022-08-19T18:45:01;3.37;;;3.07;;
3875;SDS011;1953;51.222;6.624;2022-08-19T18:50:02;4.00;;;3.07;;
3875;SDS011;1953;51.222;6.624;2022-08-19T18:54:48;3.10;;;2.90;;
3875;SDS011;1953;51.222;6.624;2022-08-19T18:59:30;3.70;;;2.90;;
3875;SDS011;1953;51.222;6.624;2022-08-19T19:04:15;4.00;;;3.17;;
3875;SDS011;1953;51.222;6.624;2022-08-19T19:08:58;4.23;;;3.33;;
3875;SDS011;1953;51.222;6.624;2022-08-19T19:13:41;3.30;;;3.00;;
3875;SDS011;1953;51.222;6.624;2022-08-19T19:18:26;4.73;;;3.43;;
3875;SDS011;1953;51.222;6.624;2022-08-19T19:23:10;3.73;;;3.43;;
3875;SDS011;1953;51.222;6.624;2022-08-19T19:27:53;6.13;;;3.80;;
3875;SDS011;1953;51.222;6.624;2022-08-19T19:32:35;4.40;;;3.93;;
3875;SDS011;1953;51.222;6.624;2022-08-19T19:37:19;5.23;;;4.40;;
3875;SDS011;1953;51.222;6.624;2022-08-19T19:42:06;4.10;;;3.53;;
3875;SDS011;1953;51.222;6.624;2022-08-19T19:46:49;3.17;;;2.87;;
3875;SDS011;1953;51.222;6.624;2022-08-19T19:51:32;2.93;;;2.30;;
3875;SDS011;1953;51.222;6.624;2022-08-19T19:56:19;2.70;;;2.50;;
3875;SDS011;1953;51.222;6.624;2022-08-19T20:01:05;2.70;;;2.50;;
3875;SDS011;1953;51.222;6.624;2022-08-19T20:05:52;3.07;;;2.87;;
3875;SDS011;1953;51.222;6.624;2022-08-19T20:10:35;3.07;;;2.80;;
3875;SDS011;1953;51.222;6.624;2022-08-19T20:15:18;3.10;;;2.50;;
3875;SDS011;1953;51.222;6.624;2022-08-19T20:20:04;3.47;;;3.13;;
3875;SDS011;1953;51.222;6.624;2022-08-19T20:24:47;4.10;;;3.80;;
3875;SDS011;1953;51.222;6.624;2022-08-19T20:29:31;4.57;;;4.13;;
3875;SDS011;1953;51.222;6.624;2022-08-19T20:34:14;3.90;;;3.60;;
3875;SDS011;1953;51.222;6.624;2022-08-19T20:38:59;4.27;;;3.50;;
3875;SDS011;1953;51.222;6.624;2022-08-19T20:43:42;3.73;;;3.40;;
3875;SDS011;1953;51.222;6.624;2022-08-19T20:48:25;4.03;;;3.70;;
3875;SDS011;1953;51.222;6.624;2022-08-19T20:53:08;3.90;;;3.60;;
3875;SDS011;1953;51.222;6.624;2022-08-19T20:57:54;3.80;;;3.50;;
3875;SDS011;1953;51.222;6.624;2022-08-19T21:02:36;4.17;;;3.60;;
3875;SDS011;1953;51.222;6.624;2022-08-19T21:07:19;6.77;;;3.77;;
3875;SDS011;1953;51.222;6.624;2022-08-19T21:12:02;4.00;;;3.60;;
3875;SDS011;1953;51.222;6.624;2022-08-19T21:16:46;4.30;;;3.90;;
3875;SDS011;1953;51.222;6.624;2022-08-19T21:21:30;4.67;;;4.23;;
3875;SDS011;1953;51.222;6.624;2022-08-19T21:26:12;4.77;;;4.17;;
3875;SDS011;1953;51.222;6.624;2022-08-19T21:30:55;4.00;;;3.70;;
3875;SDS011;1953;51.222;6.624;2022-08-19T21:35:41;12.13;;;5.03;;
3875;SDS011;1953;51.222;6.624;2022-08-19T21:40:24;6.57;;;5.90;;
3875;SDS011;1953;51.222;6.624;2022-08-19T21:45:07;7.70;;;6.30;;
3875;SDS011;1953;51.222;6.624;2022-08-19T21:49:51;12.37;;;6.63;;
3875;SDS011;1953;51.222;6.624;2022-08-19T21:54:35;9.63;;;7.13;;
3875;SDS011;1953;51.222;6.624;2022-08-19T21:59:17;8.93;;;6.73;;
3875;SDS011;1953;51.222;6.624;2022-08-19T22:04:01;9.47;;;6.87;;
3875;SDS011;1953;51.222;6.624;2022-08-19T22:08:44;9.80;;;6.53;;
3875;SDS011;1953;51.222;6.624;2022-08-19T22:13:29;7.33;;;6.60;;
3875;SDS011;1953;51.222;6.624;2022-08-19T22:18:17;10.03;;;6.77;;
3875;SDS011;1953;51.222;6.624;2022-08-19T22:23:01;8.73;;;6.43;;
3875;SDS011;1953;51.222;6.624;2022-08-19T22:27:46;7.20;;;6.30;;
3875;SDS011;1953;51.222;6.624;2022-08-19T22:32:30;9.00;;;6.90;;
3875;SDS011;1953;51.222;6.624;2022-08-19T22:37:12;8.67;;;6.40;;
3875;SDS011;1953;51.222;6.624;2022-08-19T22:41:55;9.10;;;7.33;;
3875;SDS011;1953;51.222;6.624;2022-08-19T22:46:37;9.23;;;6.43;;
3875;SDS011;1953;51.222;6.624;2022-08-19T22:51:21;7.00;;;6.30;;
3875;SDS011;1953;51.222;6.624;2022-08-19T22:56:21;8.17;;;6.83;;
3875;SDS011;1953;51.222;6.624;2022-08-19T23:01:03;8.03;;;7.23;;
3875;SDS011;1953;51.222;6.624;2022-08-19T23:05:46;8.77;;;6.83;;
3875;SDS011;1953;51.222;6.624;2022-08-19T23:10:30;8.67;;;6.80;;
3875;SDS011;1953;51.222;6.624;2022-08-19T23:15:14;7.90;;;6.57;;
3875;SDS011;1953;51.222;6.624;2022-08-19T23:19:58;8.10;;;7.30;;
3875;SDS011;1953;51.222;6.624;2022-08-19T23:24:41;7.60;;;6.77;;
3875;SDS011;1953;51.222;6.624;2022-08-19T23:29:25;11.43;;;7.13;;
3875;SDS011;1953;51.222;6.624;2022-08-19T23:34:25;9.23;;;8.33;;
3875;SDS011;1953;51.222;6.624;2022-08-19T23:39:07;9.13;;;7.00;;
3875;SDS011;1953;51.222;6.624;2022-08-19T23:43:50;8.30;;;7.30;;
3875;SDS011;1953;51.222;6.624;2022-08-19T23:48:34;8.63;;;7.73;;
3875;SDS011;1953;51.222;6.624;2022-08-19T23:53:17;11.50;;;8.53;;
3875;SDS011;1953;51.222;6.624;2022-08-19T23:58:00;12.03;;;9.70;;
